Falling Waters, West Virginia
Current Conditions -  °F | °C
As of 2:53 AM on Friday 19 Dec 2014 (Local Time) from KMRB Reporting Station
Overcast Overcast  
Wind Chill: 25°   Ceiling: 3100
Heat Index: 34°   Visibility: 10mi
Dew Point: 19°   Wind: 12mph
Humidity: 54%   Direction: 290°WNW
Pressure: 30.12"   Gusts: NA
Location:  39.56°N, 77.89°W
Report Text: KMRB 190753Z AUTO 29010KT 10SM OVC031 01/M07 A3012 RMK AO2 SLP204 T00111072 TSNO
Loading
Personal Weather Stations






























Interactive Weather Map New forecast layout! Learn more

10-Day Weather Forecast

Advertisements
Track Severe Weather on mobile